createdAt,value
2019-05-05T00:01:48.820Z,5.47
2019-05-05T00:04:30.635Z,5.43
2019-05-05T00:06:57.943Z,5.42
2019-05-05T00:09:25.456Z,5.38
2019-05-05T00:12:10.313Z,5.29
2019-05-05T00:14:39.598Z,5.21
2019-05-05T00:17:11.627Z,5.12
2019-05-05T00:19:39.235Z,5.09
2019-05-05T00:22:07.003Z,5.03
2019-05-05T00:24:35.074Z,4.98
2019-05-05T00:27:04.282Z,5.03
2019-05-05T00:29:32.145Z,4.87
2019-05-05T00:32:00.543Z,4.95
2019-05-05T00:34:32.507Z,4.93
2019-05-05T00:36:59.957Z,4.81
2019-05-05T00:39:28.138Z,4.78
2019-05-05T00:41:55.892Z,4.74
2019-05-05T00:44:24.707Z,4.72
2019-05-05T00:46:55.032Z,4.73
2019-05-05T00:49:25.002Z,4.74
2019-05-05T00:51:54.561Z,4.59
2019-05-05T00:54:21.422Z,4.75
2019-05-05T00:56:48.735Z,4.76
2019-05-05T00:59:17.816Z,4.71
2019-05-05T01:01:49.720Z,4.78
2019-05-05T01:04:18.875Z,4.77
2019-05-05T01:06:46.512Z,4.79
2019-05-05T01:09:15.901Z,4.78
2019-05-05T01:11:44.628Z,4.77
2019-05-05T01:14:14.443Z,4.81
2019-05-05T01:16:42.306Z,4.84
2019-05-05T01:19:09.804Z,4.78
2019-05-05T01:21:37.453Z,4.75
2019-05-05T01:24:05.402Z,4.64
2019-05-05T01:26:35.207Z,4.59
2019-05-05T01:29:05.286Z,4.53
2019-05-05T01:31:34.670Z,4.38
2019-05-05T01:34:06.889Z,4.49
2019-05-05T01:36:34.684Z,4.43
2019-05-05T01:39:20.006Z,4.50
2019-05-05T01:41:50.005Z,4.55
2019-05-05T01:44:18.533Z,4.40
2019-05-05T01:46:46.600Z,4.30
2019-05-05T01:49:15.159Z,4.37
2019-05-05T01:51:44.537Z,4.25
2019-05-05T01:54:12.077Z,4.13
2019-05-05T01:56:40.441Z,4.13
2019-05-05T01:59:08.135Z,4.05
2019-05-05T02:01:40.369Z,3.91
2019-05-05T02:04:08.268Z,3.86
2019-05-05T02:06:37.327Z,3.88
2019-05-05T02:09:06.217Z,3.96
2019-05-05T02:11:36.387Z,3.79
2019-05-05T02:14:05.101Z,3.89
2019-05-05T02:16:34.537Z,3.78
2019-05-05T02:19:05.036Z,3.79
2019-05-05T02:21:35.096Z,3.79
2019-05-05T02:24:05.059Z,3.76
2019-05-05T02:26:34.873Z,3.73
2019-05-05T02:29:20.092Z,3.82
2019-05-05T02:32:06.801Z,3.56
2019-05-05T02:34:36.098Z,3.66
2019-05-05T02:37:05.516Z,3.71
2019-05-05T02:39:35.336Z,3.79
2019-05-05T02:42:05.772Z,3.65
2019-05-05T02:44:34.798Z,3.52
2019-05-05T02:47:19.301Z,3.50
2019-05-05T02:49:47.245Z,3.43
2019-05-05T02:52:16.085Z,3.53
2019-05-05T02:54:44.297Z,3.67
2019-05-05T02:57:13.587Z,3.76
2019-05-05T02:59:55.759Z,3.69
2019-05-05T03:02:25.713Z,3.61
2019-05-05T03:04:53.940Z,3.55
2019-05-05T03:07:25.128Z,3.53
2019-05-05T03:09:54.521Z,3.58
2019-05-05T03:12:25.789Z,3.44
2019-05-05T03:14:56.590Z,3.41
2019-05-05T03:17:24.978Z,3.46
2019-05-05T03:19:53.529Z,3.34
2019-05-05T03:22:23.521Z,3.30
2019-05-05T03:24:53.953Z,3.31
2019-05-05T03:27:23.586Z,3.48
2019-05-05T03:29:53.539Z,3.51
2019-05-05T03:32:24.850Z,3.59
2019-05-05T03:34:53.571Z,3.65
2019-05-05T03:37:21.927Z,3.63
2019-05-05T03:39:53.712Z,3.74
2019-05-05T03:42:26.108Z,3.83
2019-05-05T03:44:58.617Z,3.79
2019-05-05T03:47:27.257Z,3.72
2019-05-05T03:49:55.434Z,3.75
2019-05-05T03:52:24.465Z,3.80
2019-05-05T03:54:54.083Z,3.84
2019-05-05T03:57:21.497Z,3.94
2019-05-05T03:59:49.152Z,4.04
2019-05-05T04:02:35.075Z,4.02
2019-05-05T04:05:08.422Z,3.98
2019-05-05T04:07:36.135Z,4.06
2019-05-05T04:10:04.165Z,4.16
2019-05-05T04:12:34.454Z,4.21
2019-05-05T04:15:03.680Z,4.24
2019-05-05T04:17:35.471Z,4.15
2019-05-05T04:20:05.405Z,4.22
2019-05-05T04:22:34.370Z,4.29
2019-05-05T04:25:04.609Z,4.47
2019-05-05T04:27:34.274Z,4.68
2019-05-05T04:30:03.725Z,4.78
2019-05-05T04:32:34.714Z,5.05
2019-05-05T04:35:03.668Z,5.10
2019-05-05T04:37:31.457Z,4.96
2019-05-05T04:39:58.795Z,4.85
2019-05-05T04:42:26.826Z,4.84
2019-05-05T04:44:54.324Z,5.00
2019-05-05T04:47:23.824Z,5.02
2019-05-05T04:49:53.797Z,5.10
2019-05-05T04:52:23.698Z,6.23
2019-05-05T04:54:55.485Z,6.84
2019-05-05T04:57:24.061Z,7.04
2019-05-05T04:59:54.014Z,6.96
2019-05-05T05:02:30.250Z,7.60
2019-05-05T05:05:16.295Z,7.78
2019-05-05T05:07:43.992Z,8.23
2019-05-05T05:10:11.361Z,7.62
2019-05-05T05:12:40.667Z,7.25
2019-05-05T05:15:08.545Z,7.41
2019-05-05T05:17:44.271Z,7.84
2019-05-05T05:20:14.022Z,7.99
2019-05-05T05:22:41.189Z,8.69
2019-05-05T05:25:08.772Z,9.67
2019-05-05T05:27:36.339Z,9.87
2019-05-05T05:30:04.725Z,9.89
2019-05-05T05:32:34.017Z,9.54
2019-05-05T05:35:03.719Z,9.39
2019-05-05T05:37:31.260Z,10.01
2019-05-05T05:40:17.187Z,10.41
2019-05-05T05:42:45.133Z,10.42
2019-05-05T05:45:31.227Z,11.03
2019-05-05T05:48:00.457Z,11.75
2019-05-05T05:50:41.816Z,11.89
2019-05-05T05:53:09.327Z,11.91
2019-05-05T05:55:36.836Z,12.00
2019-05-05T05:58:05.877Z,11.81
2019-05-05T06:00:34.361Z,12.04
2019-05-05T06:03:03.832Z,11.87
2019-05-05T06:05:31.831Z,10.58
2019-05-05T06:07:59.312Z,9.80
2019-05-05T06:10:27.529Z,9.54
2019-05-05T06:12:55.191Z,9.47
2019-05-05T06:15:24.409Z,9.31
2019-05-05T06:17:53.812Z,9.43
2019-05-05T06:20:21.339Z,9.60
2019-05-05T06:22:50.027Z,8.93
2019-05-05T06:25:17.509Z,8.93
2019-05-05T06:27:45.144Z,8.71
2019-05-05T06:30:13.782Z,8.56
2019-05-05T06:32:43.669Z,8.82
2019-05-05T06:35:11.440Z,9.39
2019-05-05T06:37:41.199Z,10.01
2019-05-05T06:40:10.602Z,10.47
2019-05-05T06:42:48.401Z,10.56
2019-05-05T06:45:20.616Z,10.74
2019-05-05T06:47:48.080Z,10.31
2019-05-05T06:50:15.452Z,9.97
2019-05-05T06:52:45.184Z,9.72
2019-05-05T06:55:14.173Z,10.25
2019-05-05T06:57:41.886Z,10.28
2019-05-05T07:00:09.566Z,10.89
2019-05-05T07:02:38.397Z,10.76
2019-05-05T07:05:05.875Z,10.64
2019-05-05T07:07:34.252Z,13.27
2019-05-05T07:10:03.760Z,15.31
2019-05-05T07:12:31.435Z,16.78
2019-05-05T07:14:59.232Z,17.01
2019-05-05T07:17:26.914Z,17.89
2019-05-05T07:19:54.515Z,17.54
2019-05-05T07:22:24.055Z,16.99
2019-05-05T07:24:54.020Z,18.45
2019-05-05T07:27:20.939Z,18.10
2019-05-05T07:29:48.240Z,18.74
2019-05-05T07:32:15.801Z,17.92
2019-05-05T07:34:45.051Z,15.06
2019-05-05T07:37:14.357Z,13.91
2019-05-05T07:39:41.869Z,13.57
2019-05-05T07:42:09.323Z,13.79
2019-05-05T07:44:37.127Z,13.00
2019-05-05T07:47:04.976Z,13.89
2019-05-05T07:49:33.572Z,16.46
2019-05-05T07:52:01.119Z,17.03
2019-05-05T07:54:28.694Z,17.83
2019-05-05T07:56:56.838Z,15.96
2019-05-05T07:59:24.224Z,16.99
2019-05-05T08:01:51.726Z,15.27
2019-05-05T08:04:19.694Z,15.37
2019-05-05T08:06:48.055Z,15.87
2019-05-05T08:09:15.728Z,14.49
2019-05-05T08:11:43.607Z,13.57
2019-05-05T08:14:11.323Z,15.62
2019-05-05T08:16:53.634Z,17.06
2019-05-05T08:19:38.353Z,16.88
2019-05-05T08:22:06.058Z,18.02
2019-05-05T08:24:54.403Z,18.59
2019-05-05T08:27:29.410Z,18.96
2019-05-05T08:30:04.595Z,18.39
2019-05-05T08:32:35.710Z,17.48
2019-05-05T08:35:04.760Z,15.82
2019-05-05T08:37:34.193Z,15.43
2019-05-05T08:40:01.853Z,14.30
2019-05-05T08:42:29.185Z,13.99
2019-05-05T08:44:56.879Z,15.04
2019-05-05T08:47:24.654Z,15.77
2019-05-05T08:49:53.822Z,15.57
2019-05-05T08:52:23.860Z,15.86
2019-05-05T08:54:54.056Z,16.52
2019-05-05T08:57:23.476Z,17.15
2019-05-05T08:59:51.164Z,16.94
2019-05-05T09:02:18.735Z,17.12
2019-05-05T09:04:46.097Z,17.21
2019-05-05T09:07:13.847Z,17.51
2019-05-05T09:09:41.361Z,17.12
2019-05-05T09:12:08.920Z,17.34
2019-05-05T09:14:36.460Z,17.22
2019-05-05T09:17:04.573Z,17.50
2019-05-05T09:19:34.440Z,17.97
2019-05-05T09:22:01.960Z,17.85
2019-05-05T09:24:34.209Z,18.02
2019-05-05T09:27:19.760Z,18.14
2019-05-05T09:29:47.462Z,17.94
2019-05-05T09:32:14.893Z,17.04
2019-05-05T09:34:43.616Z,17.25
2019-05-05T09:37:11.497Z,17.80
2019-05-05T09:39:38.931Z,18.12
2019-05-05T09:42:06.452Z,17.38
2019-05-05T09:44:34.648Z,17.91
2019-05-05T09:47:04.470Z,18.03
2019-05-05T09:49:33.738Z,18.78
2019-05-05T09:52:00.998Z,18.28
2019-05-05T09:54:30.479Z,18.37
2019-05-05T09:56:58.327Z,17.71
2019-05-05T09:59:25.806Z,16.15
2019-05-05T10:01:53.860Z,16.99
2019-05-05T10:04:24.299Z,16.36
2019-05-05T10:06:51.923Z,15.73
2019-05-05T10:09:19.458Z,16.64
2019-05-05T10:11:46.695Z,17.55
2019-05-05T10:14:14.514Z,17.85
2019-05-05T10:16:42.333Z,17.73
2019-05-05T10:19:09.574Z,17.58
2019-05-05T10:21:37.054Z,18.16
2019-05-05T10:24:27.833Z,17.99
2019-05-05T10:26:44.694Z,17.91
2019-05-05T10:29:13.608Z,18.05
2019-05-05T10:31:43.726Z,18.39
2019-05-05T10:34:13.637Z,17.77
2019-05-05T10:36:41.446Z,18.56
2019-05-05T10:39:12.219Z,17.61
2019-05-05T10:41:39.749Z,17.62
2019-05-05T10:44:07.196Z,17.16
2019-05-05T10:46:35.091Z,16.50
2019-05-05T10:49:03.551Z,17.09
2019-05-05T10:51:31.608Z,16.27
2019-05-05T10:53:59.494Z,16.24
2019-05-05T10:56:26.913Z,16.92
2019-05-05T10:58:54.682Z,17.58
2019-05-05T11:01:23.622Z,17.76
2019-05-05T11:03:51.124Z,17.53
2019-05-05T11:06:18.308Z,17.48
2019-05-05T11:08:45.886Z,16.71
2019-05-05T11:11:13.729Z,15.90
2019-05-05T11:13:45.531Z,15.24
2019-05-05T11:16:14.528Z,15.57
2019-05-05T11:18:42.294Z,15.25
2019-05-05T11:21:09.758Z,15.27
2019-05-05T11:23:37.389Z,15.63
2019-05-05T11:26:05.581Z,15.82
2019-05-05T11:28:33.948Z,15.77
2019-05-05T11:31:01.647Z,15.77
2019-05-05T11:33:48.004Z,15.03
2019-05-05T11:36:20.464Z,14.96
2019-05-05T11:38:47.743Z,16.23
2019-05-05T11:41:15.018Z,16.89
2019-05-05T11:43:43.712Z,16.07
2019-05-05T11:46:11.531Z,16.37
2019-05-05T11:48:39.044Z,17.23
2019-05-05T11:51:06.635Z,19.03
2019-05-05T11:53:34.404Z,20.08
2019-05-05T11:56:03.988Z,19.69
2019-05-05T11:58:33.903Z,20.21
2019-05-05T12:01:03.765Z,20.37
2019-05-05T12:03:31.215Z,19.19
2019-05-05T12:05:58.894Z,17.39
2019-05-05T12:08:26.669Z,16.73
2019-05-05T12:10:58.762Z,15.91
2019-05-05T12:13:26.599Z,18.61
2019-05-05T12:15:56.287Z,19.01
2019-05-05T12:18:24.305Z,17.90
2019-05-05T12:20:54.418Z,17.13
2019-05-05T12:23:22.514Z,16.02
2019-05-05T12:25:57.027Z,16.91
2019-05-05T12:28:24.480Z,18.46
2019-05-05T12:30:52.688Z,17.87
2019-05-05T12:33:20.224Z,17.57
2019-05-05T12:35:47.553Z,16.45
2019-05-05T12:38:14.598Z,16.46
2019-05-05T12:40:41.814Z,16.45
2019-05-05T12:43:08.971Z,15.94
2019-05-05T12:45:38.598Z,15.92
2019-05-05T12:48:08.357Z,15.87
2019-05-05T12:50:35.983Z,16.39
2019-05-05T12:53:04.186Z,16.86
2019-05-05T12:55:40.521Z,16.84
2019-05-05T12:58:03.396Z,16.17
2019-05-05T13:00:30.689Z,16.53
2019-05-05T13:02:58.055Z,17.71
2019-05-05T13:05:25.517Z,18.90
2019-05-05T13:07:53.095Z,20.56
2019-05-05T13:10:20.708Z,18.68
2019-05-05T13:12:48.559Z,17.79
2019-05-05T13:15:16.939Z,17.09
2019-05-05T13:17:44.631Z,16.23
2019-05-05T13:20:29.487Z,16.46
2019-05-05T13:23:08.170Z,16.16
2019-05-05T13:25:56.701Z,16.15
2019-05-05T13:28:23.824Z,15.98
2019-05-05T13:30:54.070Z,15.71
2019-05-05T13:33:21.707Z,15.88
2019-05-05T13:35:48.948Z,16.06
2019-05-05T13:38:16.375Z,15.94
2019-05-05T13:40:45.722Z,15.99
2019-05-05T13:43:14.464Z,15.94
2019-05-05T13:45:51.317Z,15.64
2019-05-05T13:48:19.204Z,15.69
2019-05-05T13:50:48.744Z,15.47
2019-05-05T13:53:16.650Z,15.47
2019-05-05T13:55:46.032Z,15.48
2019-05-05T13:58:14.694Z,14.78
2019-05-05T14:00:41.768Z,14.90
2019-05-05T14:03:08.637Z,15.47
2019-05-05T14:05:35.694Z,15.48
2019-05-05T14:08:04.174Z,15.09
2019-05-05T14:10:31.503Z,15.29
2019-05-05T14:12:58.754Z,15.24
2019-05-05T14:15:26.173Z,15.28
2019-05-05T14:17:54.430Z,14.81
2019-05-05T14:20:23.838Z,15.03
2019-05-05T14:22:51.848Z,15.23
2019-05-05T14:25:21.422Z,15.19
2019-05-05T14:27:49.438Z,15.39
2019-05-05T14:30:30.109Z,15.40
2019-05-05T14:32:58.566Z,15.40
2019-05-05T14:35:27.701Z,15.10
2019-05-05T14:37:57.499Z,15.47
2019-05-05T14:40:24.987Z,15.23
2019-05-05T14:42:53.960Z,15.23
2019-05-05T14:45:23.527Z,15.23
2019-05-05T14:47:51.039Z,14.88
2019-05-05T14:50:19.067Z,14.70
2019-05-05T14:52:47.273Z,14.66
2019-05-05T14:55:14.879Z,14.66
2019-05-05T14:57:44.087Z,14.80
2019-05-05T15:00:15.400Z,14.93
2019-05-05T15:02:43.883Z,15.01
2019-05-05T15:05:19.171Z,15.00
2019-05-05T15:07:53.597Z,15.07
2019-05-05T15:10:39.983Z,15.04
2019-05-05T15:13:09.369Z,14.92
2019-05-05T15:15:37.238Z,14.92
2019-05-05T15:18:04.895Z,14.70
2019-05-05T15:20:33.793Z,14.49
2019-05-05T15:23:01.769Z,14.72
2019-05-05T15:25:29.635Z,14.22
2019-05-05T15:27:57.204Z,14.22
2019-05-05T15:30:27.109Z,14.07
2019-05-05T15:32:54.559Z,14.23
2019-05-05T15:35:22.003Z,14.39
2019-05-05T15:37:49.803Z,14.15
2019-05-05T15:40:17.433Z,14.35
2019-05-05T15:42:45.104Z,14.46
2019-05-05T15:45:12.883Z,14.40
2019-05-05T15:47:40.438Z,14.57
2019-05-05T15:50:09.055Z,14.62
2019-05-05T15:52:36.666Z,14.54
2019-05-05T15:55:04.617Z,14.44
2019-05-05T15:57:33.604Z,14.70
2019-05-05T16:00:01.508Z,14.42
2019-05-05T16:02:29.162Z,14.42
2019-05-05T16:04:56.586Z,14.33
2019-05-05T16:07:24.406Z,14.14
2019-05-05T16:09:53.705Z,14.13
2019-05-05T16:12:31.998Z,14.33
2019-05-05T16:14:53.797Z,14.35
2019-05-05T16:17:35.103Z,14.04
2019-05-05T16:20:04.838Z,13.90
2019-05-05T16:22:34.681Z,14.12
2019-05-05T16:25:14.049Z,14.35
2019-05-05T16:27:44.028Z,14.35
2019-05-05T16:30:14.465Z,14.22
2019-05-05T16:32:42.104Z,14.24
2019-05-05T16:35:14.494Z,13.91
2019-05-05T16:37:42.375Z,14.06
2019-05-05T16:40:11.478Z,14.24
2019-05-05T16:42:39.118Z,14.32
2019-05-05T16:45:07.660Z,14.11
2019-05-05T16:47:35.341Z,14.17
2019-05-05T16:50:04.193Z,14.11
2019-05-05T16:52:33.178Z,14.00
2019-05-05T16:55:04.376Z,14.04
2019-05-05T16:57:34.133Z,13.95
2019-05-05T17:00:00.666Z,13.93
2019-05-05T17:02:27.643Z,13.87
2019-05-05T17:04:54.756Z,13.94
2019-05-05T17:07:23.774Z,13.81
2019-05-05T17:09:51.313Z,13.68
2019-05-05T17:12:18.469Z,13.72
2019-05-05T17:15:04.471Z,13.78
2019-05-05T17:17:34.100Z,13.63
2019-05-05T17:20:04.593Z,13.38
2019-05-05T17:22:36.276Z,13.45
2019-05-05T17:25:03.295Z,13.52
2019-05-05T17:27:30.438Z,13.50
2019-05-05T17:29:57.248Z,13.46
2019-05-05T17:32:24.873Z,13.50
2019-05-05T17:34:53.992Z,13.43
2019-05-05T17:37:20.790Z,13.37
2019-05-05T17:39:54.469Z,13.39
2019-05-05T17:42:24.017Z,13.53
2019-05-05T17:44:53.100Z,13.30
2019-05-05T17:47:28.566Z,13.37
2019-05-05T17:50:00.446Z,13.49
2019-05-05T17:52:35.281Z,13.47
2019-05-05T17:55:04.684Z,13.40
2019-05-05T17:57:32.104Z,13.26
2019-05-05T17:59:59.282Z,13.32
2019-05-05T18:02:26.152Z,13.13
2019-05-05T18:04:54.089Z,12.93
2019-05-05T18:07:29.280Z,12.96
2019-05-05T18:09:58.295Z,13.08
2019-05-05T18:12:40.063Z,13.08
2019-05-05T18:15:15.151Z,12.82
2019-05-05T18:17:43.428Z,12.78
2019-05-05T18:20:10.509Z,12.69
2019-05-05T18:22:37.503Z,12.47
2019-05-05T18:25:04.359Z,12.47
2019-05-05T18:27:31.594Z,12.38
2019-05-05T18:29:58.462Z,12.41
2019-05-05T18:32:25.165Z,12.31
2019-05-05T18:34:54.345Z,12.26
2019-05-05T18:37:21.531Z,12.32
2019-05-05T18:39:48.531Z,12.19
2019-05-05T18:42:17.265Z,12.13
2019-05-05T18:44:46.439Z,12.07
2019-05-05T18:47:18.640Z,11.93
2019-05-05T18:49:45.848Z,11.96
2019-05-05T18:52:13.884Z,11.97
2019-05-05T18:54:40.858Z,11.84
2019-05-05T18:57:08.702Z,11.73
2019-05-05T18:59:36.229Z,11.77
2019-05-05T19:02:11.052Z,11.71
2019-05-05T19:04:42.846Z,11.62
2019-05-05T19:07:11.510Z,11.61
2019-05-05T19:09:51.006Z,11.57
2019-05-05T19:12:10.227Z,11.55
2019-05-05T19:14:36.435Z,11.47
2019-05-05T19:17:04.592Z,11.38
2019-05-05T19:19:31.582Z,11.35
2019-05-05T19:22:00.981Z,11.28
2019-05-05T19:24:29.162Z,11.26
2019-05-05T19:26:56.216Z,11.06
2019-05-05T19:29:24.350Z,10.85
2019-05-05T19:31:51.539Z,10.47
2019-05-05T19:34:18.458Z,10.42
2019-05-05T19:36:45.538Z,10.49
2019-05-05T19:39:13.711Z,10.46
2019-05-05T19:41:41.391Z,10.47
2019-05-05T19:44:14.720Z,10.45
2019-05-05T19:46:44.182Z,10.38
2019-05-05T19:49:14.833Z,10.27
2019-05-05T19:51:41.754Z,10.34
2019-05-05T19:54:08.670Z,10.18
2019-05-05T19:56:36.756Z,9.99
2019-05-05T19:59:04.382Z,10.03
2019-05-05T20:01:35.367Z,9.81
2019-05-05T20:04:00.459Z,9.83
2019-05-05T20:06:27.786Z,9.98
2019-05-05T20:08:55.059Z,9.97
2019-05-05T20:11:21.924Z,9.98
2019-05-05T20:13:48.981Z,10.02
2019-05-05T20:16:18.048Z,9.89
2019-05-05T20:18:46.018Z,9.61
2019-05-05T20:21:14.501Z,9.63
2019-05-05T20:23:43.605Z,9.72
2019-05-05T20:26:10.548Z,9.76
2019-05-05T20:28:37.477Z,9.73
2019-05-05T20:31:04.376Z,9.52
2019-05-05T20:33:41.945Z,9.46
2019-05-05T20:36:14.564Z,9.42
2019-05-05T20:38:46.214Z,9.50
2019-05-05T20:41:17.886Z,9.40
2019-05-05T20:43:45.259Z,9.44
2019-05-05T20:46:12.206Z,9.33
2019-05-05T20:48:41.216Z,9.24
2019-05-05T20:51:08.352Z,9.24
2019-05-05T20:53:35.323Z,9.26
2019-05-05T20:56:04.219Z,9.26
2019-05-05T20:58:31.164Z,9.26
2019-05-05T21:00:58.656Z,9.20
2019-05-05T21:03:26.058Z,9.00
2019-05-05T21:05:53.855Z,9.00
2019-05-05T21:08:20.990Z,9.07
2019-05-05T21:10:47.965Z,9.03
2019-05-05T21:13:15.472Z,9.03
2019-05-05T21:15:45.024Z,9.17
2019-05-05T21:18:14.399Z,9.05
2019-05-05T21:20:41.125Z,8.87
2019-05-05T21:23:24.570Z,8.87
2019-05-05T21:25:56.064Z,8.97
2019-05-05T21:28:24.105Z,8.93
2019-05-05T21:30:51.107Z,8.87
2019-05-05T21:33:18.132Z,8.69
2019-05-05T21:35:45.373Z,8.72
2019-05-05T21:38:14.261Z,8.69
2019-05-05T21:40:43.907Z,8.66
2019-05-05T21:43:15.249Z,8.68
2019-05-05T21:45:44.378Z,8.75
2019-05-05T21:48:13.507Z,8.71
2019-05-05T21:50:44.695Z,8.67
2019-05-05T21:53:19.650Z,8.56
2019-05-05T21:55:51.141Z,8.60
2019-05-05T21:58:22.610Z,8.44
2019-05-05T22:00:50.649Z,8.24
2019-05-05T22:03:20.227Z,8.30
2019-05-05T22:05:47.459Z,8.09
2019-05-05T22:08:14.534Z,8.26
2019-05-05T22:10:41.532Z,8.38
2019-05-05T22:13:08.324Z,8.32
2019-05-05T22:15:35.757Z,8.35
2019-05-05T22:18:03.661Z,8.28
2019-05-05T22:20:47.595Z,8.29
2019-05-05T22:23:14.859Z,8.26
2019-05-05T22:25:43.677Z,8.16
2019-05-05T22:28:10.991Z,8.12
2019-05-05T22:30:38.025Z,8.08
2019-05-05T22:33:06.078Z,8.06
2019-05-05T22:35:34.940Z,8.04
2019-05-05T22:38:05.627Z,8.05
2019-05-05T22:40:30.565Z,8.03
2019-05-05T22:42:57.887Z,8.07
2019-05-05T22:45:25.038Z,7.98
2019-05-05T22:47:54.200Z,8.00
2019-05-05T22:50:20.906Z,7.94
2019-05-05T22:52:47.758Z,7.85
2019-05-05T22:55:14.731Z,7.83
2019-05-05T22:57:41.716Z,7.72
2019-05-05T23:00:25.312Z,7.75
2019-05-05T23:02:49.561Z,7.67
2019-05-05T23:05:24.404Z,7.43
2019-05-05T23:07:51.268Z,7.47
2019-05-05T23:10:18.391Z,7.26
2019-05-05T23:12:45.691Z,7.30
2019-05-05T23:15:14.497Z,7.39
2019-05-05T23:17:43.852Z,7.39
2019-05-05T23:20:16.342Z,7.41
2019-05-05T23:22:54.840Z,7.27
2019-05-05T23:25:24.188Z,7.16
2019-05-05T23:27:51.210Z,7.24
2019-05-05T23:30:20.371Z,7.09
2019-05-05T23:32:48.113Z,6.97
2019-05-05T23:35:16.280Z,6.88
2019-05-05T23:37:44.857Z,6.88
2019-05-05T23:40:14.331Z,6.88
2019-05-05T23:42:41.527Z,6.80
2019-05-05T23:45:08.575Z,6.83
2019-05-05T23:47:35.719Z,6.71
2019-05-05T23:50:04.513Z,6.76
2019-05-05T23:52:31.485Z,6.75
2019-05-05T23:54:58.450Z,6.74
2019-05-05T23:57:25.373Z,6.73
2019-05-05T23:59:53.714Z,6.63
